Time;durP1;ratioP1;P1;durP2;ratioP2;P2;SDS_P1;SDS_P2;PMS_P1;PMS_P2;Temp;Humidity;BMP_temperature;BMP_pressure;BME280_temperature;BME280_humidity;BME280_pressure;Samples;Min_cycle;Max_cycle;Signal;HPM_P1;HPM_P2
2024/01/06 00:00:30;;;;;;;9.70;6.70;;;;;;;-146.27;88.41;41219.94;5064042;28;20491;-73
2024/01/06 00:02:56;;;;;;;13.82;6.70;;;;;;;-146.27;88.23;41227.88;5069545;28;20021;-72
2024/01/06 00:05:22;;;;;;;11.77;6.63;;;;;;;-146.27;88.08;41283.56;5067491;28;20048;-72
2024/01/06 00:07:47;;;;;;;10.43;6.53;;;;;;;-146.27;88.43;41251.75;5068058;28;20058;-72
2024/01/06 00:10:12;;;;;;;11.68;7.20;;;;;;;-146.27;88.80;41170.22;5066395;28;20039;-72
2024/01/06 00:12:38;;;;;;;15.88;7.95;;;;;;;-146.27;88.94;41120.53;5068167;28;20020;-72
2024/01/06 00:15:04;;;;;;;12.57;7.78;;;;;;;-146.27;88.59;41158.31;5066597;28;20041;-71
2024/01/06 00:17:29;;;;;;;13.93;8.07;;;;;;;-146.27;88.27;41217.94;5066602;28;20024;-72
2024/01/06 00:19:55;;;;;;;13.90;7.15;;;;;;;-146.27;88.48;41215.94;5068041;28;20477;-72
2024/01/06 00:22:20;;;;;;;10.63;7.07;;;;;;;-146.27;88.48;41188.13;5068473;28;20024;-72
2024/01/06 00:24:46;;;;;;;16.63;6.90;;;;;;;-146.27;88.46;41243.78;5065188;28;20092;-72
2024/01/06 00:27:13;;;;;;;10.68;6.88;;;;;;;-146.27;88.77;41184.16;5067221;28;20036;-72
2024/01/06 00:29:38;;;;;;;14.48;7.57;;;;;;;-146.27;88.55;41180.16;5067543;28;20384;-72
2024/01/06 00:32:05;;;;;;;13.65;7.20;;;;;;;-146.27;88.18;41235.84;5066735;28;20024;-72
2024/01/06 00:34:30;;;;;;;11.48;7.50;;;;;;;-146.27;88.39;41221.91;5065353;28;20051;-73
2024/01/06 00:36:55;;;;;;;13.20;6.85;;;;;;;-146.27;88.27;41233.84;5062408;28;20027;-72
2024/01/06 00:39:21;;;;;;;11.40;6.18;;;;;;;-146.27;88.15;41299.47;5069238;28;20024;-72
2024/01/06 00:41:46;;;;;;;10.82;7.00;;;;;;;-146.27;88.20;41299.47;5067289;28;20101;-72
2024/01/06 00:44:12;;;;;;;13.15;7.20;;;;;;;-146.27;88.13;41275.59;5067864;28;20112;-72
2024/01/06 00:46:37;;;;;;;9.70;6.97;;;;;;;-146.27;87.89;41321.31;5067532;28;20028;-72
2024/01/06 00:49:03;;;;;;;12.82;6.18;;;;;;;-146.27;87.89;41339.22;5066030;28;20575;-73
2024/01/06 00:51:29;;;;;;;11.00;6.15;;;;;;;-146.27;88.09;41339.22;5064941;28;20613;-72
2024/01/06 00:53:55;;;;;;;12.10;6.60;;;;;;;-146.27;88.09;41303.44;5069039;28;20020;-72
2024/01/06 00:56:20;;;;;;;10.48;5.90;;;;;;;-146.27;88.18;41321.31;5063875;28;20480;-72
2024/01/06 00:58:45;;;;;;;12.88;6.03;;;;;;;-146.27;88.18;41319.34;5065213;28;20013;-72
2024/01/06 01:01:11;;;;;;;10.18;6.15;;;;;;;-146.27;88.15;41309.41;5062172;28;21740;-72
2024/01/06 01:03:36;;;;;;;13.20;6.47;;;;;;;-146.27;87.71;41317.34;5063152;28;20040;-73
2024/01/06 01:06:02;;;;;;;10.23;5.78;;;;;;;-146.27;87.93;41390.91;5062167;28;20720;-72
2024/01/06 01:08:28;;;;;;;11.57;6.00;;;;;;;-146.27;87.78;41355.13;5063553;28;20089;-72
2024/01/06 01:10:54;;;;;;;7.93;5.65;;;;;;;-146.27;88.01;41359.09;5069948;28;20421;-72
2024/01/06 01:13:19;;;;;;;10.88;6.55;;;;;;;-146.27;87.78;41386.94;5063809;28;20042;-73
2024/01/06 01:15:45;;;;;;;12.77;6.03;;;;;;;-146.27;87.67;41406.81;5067123;28;20093;-72
2024/01/06 01:18:10;;;;;;;11.15;5.32;;;;;;;-146.27;88.02;41351.16;5065987;28;20578;-72
2024/01/06 01:20:35;;;;;;;10.75;6.35;;;;;;;-146.27;87.97;41375.00;5064800;28;20031;-72
2024/01/06 01:23:01;;;;;;;9.60;5.45;;;;;;;-146.27;87.83;41365.06;5055177;28;20094;-72
2024/01/06 01:25:26;;;;;;;8.75;5.07;;;;;;;-146.27;87.71;41436.63;5065234;28;20123;-72
2024/01/06 01:27:51;;;;;;;11.38;5.47;;;;;;;-146.27;87.54;41416.75;5068247;28;20043;-72
2024/01/06 01:30:17;;;;;;;10.57;4.40;;;;;;;-146.27;87.51;41514.19;5063731;28;20025;-72
2024/01/06 01:32:42;;;;;;;14.23;5.10;;;;;;;-146.27;87.70;41430.69;5060825;28;20116;-72
2024/01/06 01:35:08;;;;;;;8.98;5.28;;;;;;;-146.27;87.59;41450.56;5062784;28;20563;-73
2024/01/06 01:37:33;;;;;;;15.55;5.00;;;;;;;-146.27;87.49;41549.97;5068511;28;20025;-72
2024/01/06 01:39:58;;;;;;;4.95;4.05;;;;;;;-146.27;87.35;41522.13;5070611;28;20020;-72
2024/01/06 01:42:24;;;;;;;9.63;4.35;;;;;;;-146.27;86.83;41597.69;5072469;28;20029;-72
2024/01/06 01:44:49;;;;;;;7.43;3.80;;;;;;;-146.27;86.75;41603.66;5062582;28;20557;-72
2024/01/06 01:47:18;;;;;;;5.50;3.80;;;;;;;-146.27;86.66;41661.31;5068236;28;20043;-73
2024/01/06 01:49:47;;;;;;;4.03;2.67;;;;;;;-146.27;86.24;41762.72;5064399;28;20024;-72
2024/01/06 01:52:14;;;;;;;5.07;2.80;;;;;;;-146.27;85.69;41854.19;5070268;28;20029;-72
2024/01/06 01:54:42;;;;;;;8.50;3.05;;;;;;;-146.27;85.48;41957.59;5070119;28;20447;-72
2024/01/06 01:57:07;;;;;;;3.00;2.58;;;;;;;-146.27;84.83;42114.69;5067776;28;20027;-72
2024/01/06 01:59:33;;;;;;;5.30;1.80;;;;;;;-146.27;85.01;42120.66;5067372;28;20072;-73
2024/01/06 02:02:00;;;;;;;4.10;1.73;;;;;;;-146.27;84.55;42194.22;5061977;28;20059;-72
2024/01/06 02:04:25;;;;;;;4.40;1.48;;;;;;;-146.27;84.34;42210.13;5068236;28;20056;-71
2024/01/06 02:06:51;;;;;;;6.88;2.13;;;;;;;-146.27;84.20;42265.81;5069718;28;20392;-72
2024/01/06 02:09:16;;;;;;;4.15;2.78;;;;;;;-146.27;84.37;42218.09;5071586;28;20051;-72
2024/01/06 02:11:42;;;;;;;10.32;3.33;;;;;;;-146.27;84.34;42239.97;5063165;28;20082;-72
2024/01/06 02:14:07;;;;;;;10.77;3.83;;;;;;;-146.27;84.67;42218.09;5071782;28;20029;-71
2024/01/06 02:16:33;;;;;;;8.27;3.90;;;;;;;-146.27;84.30;42297.63;5070621;28;20438;-73
2024/01/06 02:18:58;;;;;;;5.43;3.50;;;;;;;-146.27;84.64;42263.81;5072867;28;20067;-72
2024/01/06 02:21:23;;;;;;;7.25;3.67;;;;;;;-146.27;84.97;42249.91;5069851;28;20031;-72
2024/01/06 02:23:49;;;;;;;6.70;4.00;;;;;;;-146.27;84.93;42208.16;5069904;28;20028;-72
2024/01/06 02:26:16;;;;;;;8.48;3.97;;;;;;;-146.27;85.66;42104.75;5072535;28;20024;-72
2024/01/06 02:28:41;;;;;;;5.88;3.92;;;;;;;-146.27;85.37;42166.38;5071330;28;20025;-72
2024/01/06 02:31:06;;;;;;;7.18;4.10;;;;;;;-146.27;85.02;42204.16;5068527;28;22078;-72
2024/01/06 02:33:32;;;;;;;9.43;4.35;;;;;;;-146.27;85.03;42218.09;5065074;28;20070;-72
2024/01/06 02:35:57;;;;;;;8.25;4.80;;;;;;;-146.27;85.56;42198.19;5070132;28;20046;-73
2024/01/06 02:38:22;;;;;;;8.93;4.65;;;;;;;-146.27;85.14;42202.19;5066963;28;20384;-72
2024/01/06 02:40:48;;;;;;;12.23;4.95;;;;;;;-146.27;85.91;42110.72;5068756;28;20025;-72
2024/01/06 02:43:13;;;;;;;8.93;4.53;;;;;;;-146.27;85.77;42074.91;5071895;28;20029;-72
2024/01/06 02:45:39;;;;;;;6.28;4.60;;;;;;;-146.27;85.79;42086.84;5063296;28;20044;-72
2024/01/06 02:48:04;;;;;;;10.18;5.50;;;;;;;-146.27;86.21;41999.34;5065581;28;20081;-71
2024/01/06 02:50:30;;;;;;;6.78;5.22;;;;;;;-146.27;86.10;41979.47;5058989;28;20413;-72
2024/01/06 02:52:55;;;;;;;8.98;5.55;;;;;;;-146.27;86.25;41953.63;5061327;28;20037;-72
2024/01/06 02:55:20;;;;;;;8.98;5.38;;;;;;;-146.27;86.27;41967.53;5064301;28;20532;-71
2024/01/06 02:57:46;;;;;;;7.80;5.20;;;;;;;-146.27;86.46;41957.59;5063401;28;20029;-71
2024/01/06 03:00:12;;;;;;;7.28;5.32;;;;;;;-146.27;86.17;41979.47;5062234;28;20040;-71
2024/01/06 03:02:41;;;;;;;9.35;5.25;;;;;;;-146.27;86.03;42027.19;5067946;28;20471;-71
2024/01/06 03:05:07;;;;;;;10.63;5.80;;;;;;;-146.27;85.99;41965.53;5066817;28;20020;-71
2024/01/06 03:07:32;;;;;;;9.88;6.57;;;;;;;-146.27;85.57;42076.91;5065207;28;22150;-71
2024/01/06 03:09:58;;;;;;;11.10;6.95;;;;;;;-146.27;85.59;42078.88;5070770;28;20115;-72
2024/01/06 03:12:23;;;;;;;9.05;6.57;;;;;;;-146.27;86.22;42051.06;5067815;28;20035;-72
2024/01/06 03:14:49;;;;;;;13.00;7.18;;;;;;;-146.27;85.80;42080.88;5069641;28;20016;-72
2024/01/06 03:17:14;;;;;;;8.32;5.60;;;;;;;-146.27;86.45;42001.34;5064682;28;20126;-71
2024/01/06 03:19:40;;;;;;;12.57;6.07;;;;;;;-146.27;85.90;42049.06;5070354;28;20500;-71
2024/01/06 03:22:05;;;;;;;14.75;5.60;;;;;;;-146.27;85.92;42062.97;5067817;28;20028;-71
2024/01/06 03:24:31;;;;;;;7.85;4.82;;;;;;;-146.27;85.59;42120.66;5067738;28;20067;-71
2024/01/06 03:26:56;;;;;;;8.60;5.25;;;;;;;-146.27;85.54;42138.53;5066686;28;20059;-71
2024/01/06 03:29:22;;;;;;;9.20;5.03;;;;;;;-146.27;85.54;42156.44;5064527;28;20096;-73
2024/01/06 03:31:47;;;;;;;16.23;6.45;;;;;;;-146.27;85.12;42220.06;5067979;28;20028;-72
2024/01/06 03:34:14;;;;;;;9.07;4.70;;;;;;;-146.27;85.02;42245.94;5068207;28;20091;-73
2024/01/06 03:36:40;;;;;;;10.48;4.35;;;;;;;-146.27;84.66;42245.94;5064209;28;20131;-72
2024/01/06 03:39:07;;;;;;;8.23;5.35;;;;;;;-146.27;84.81;42297.63;5068685;28;20171;-72
2024/01/06 03:41:32;;;;;;;9.95;5.90;;;;;;;-146.27;85.18;42265.81;5066186;28;20021;-72
2024/01/06 03:43:58;;;;;;;15.25;7.55;;;;;;;-146.27;85.66;42146.50;5070495;28;20396;-71
2024/01/06 03:46:24;;;;;;;8.80;6.07;;;;;;;-146.27;86.02;42104.75;5060514;28;20541;-71
2024/01/06 03:48:49;;;;;;;7.43;5.30;;;;;;;-146.27;85.38;42160.41;5069877;28;20492;-73
2024/01/06 03:51:15;;;;;;;10.02;4.80;;;;;;;-146.27;85.34;42269.78;5065461;28;20032;-72
2024/01/06 03:53:41;;;;;;;6.07;4.43;;;;;;;-146.27;85.51;42261.84;5066036;28;20178;-71
2024/01/06 03:56:07;;;;;;;7.28;4.20;;;;;;;-146.27;85.18;42251.91;5058236;28;20112;-71
2024/01/06 03:58:32;;;;;;;7.97;4.22;;;;;;;-146.27;84.78;42297.63;5066936;28;20077;-72
2024/01/06 04:00:58;;;;;;;9.13;5.20;;;;;;;-146.27;85.21;42271.78;5059989;28;20076;-72
2024/01/06 04:03:23;;;;;;;13.75;5.70;;;;;;;-146.27;85.64;42230.03;5061428;28;20059;-72
2024/01/06 04:05:49;;;;;;;9.90;5.63;;;;;;;-146.27;85.19;42228.03;5069033;28;20028;-72
2024/01/06 04:08:14;;;;;;;7.40;5.38;;;;;;;-146.27;84.75;42301.63;5068068;28;20078;-72
2024/01/06 04:10:41;;;;;;;11.30;4.78;;;;;;;-146.27;84.89;42361.28;5067329;28;20081;-72
2024/01/06 04:13:07;;;;;;;11.25;4.60;;;;;;;-146.27;85.13;42347.34;5069601;28;20489;-73
2024/01/06 04:15:33;;;;;;;9.13;4.50;;;;;;;-146.27;85.13;42307.56;5062717;28;20024;-72
2024/01/06 04:18:03;;;;;;;10.15;4.80;;;;;;;-146.27;85.06;42335.41;5068188;28;20028;-72
2024/01/06 04:20:28;;;;;;;7.07;4.80;;;;;;;-146.27;85.42;42295.66;5067445;28;20503;-72
2024/01/06 04:22:56;;;;;;;6.40;4.15;;;;;;;-146.27;85.08;42325.47;5067750;28;20060;-72
2024/01/06 04:25:21;;;;;;;8.00;4.75;;;;;;;-146.27;84.90;42355.31;5065699;28;20132;-72
2024/01/06 04:27:48;;;;;;;7.32;4.22;;;;;;;-146.27;85.00;42393.09;5066487;28;20555;-72
2024/01/06 04:30:14;;;;;;;10.48;5.10;;;;;;;-146.27;85.41;42349.34;5063487;28;20679;-72
2024/01/06 04:32:40;;;;;;;7.55;4.00;;;;;;;-146.27;85.13;42325.47;5065670;28;20028;-73
2024/01/06 04:35:05;;;;;;;9.20;4.57;;;;;;;-146.27;84.98;42343.38;5065326;28;20028;-71
2024/01/06 04:37:31;;;;;;;11.10;4.95;;;;;;;-146.27;85.59;42287.69;5063559;28;20024;-71
2024/01/06 04:39:57;;;;;;;9.73;5.50;;;;;;;-146.27;85.56;42255.88;5066763;28;20085;-72
2024/01/06 04:42:22;;;;;;;6.63;4.47;;;;;;;-146.27;85.39;42273.78;5069455;28;20663;-72
2024/01/06 04:44:49;;;;;;;8.57;4.40;;;;;;;-146.27;85.50;42257.88;5068159;28;20025;-72
2024/01/06 04:47:14;;;;;;;9.02;3.95;;;;;;;-146.27;85.45;42277.75;5056961;28;20085;-72
2024/01/06 04:49:39;;;;;;;6.35;3.72;;;;;;;-146.27;85.49;42261.84;5068906;28;20060;-71
2024/01/06 04:52:05;;;;;;;5.65;3.67;;;;;;;-146.27;85.70;42228.03;5067218;28;20043;-71
2024/01/06 04:54:30;;;;;;;7.63;3.55;;;;;;;-146.27;85.54;42241.97;5067951;28;20040;-72
2024/01/06 04:56:56;;;;;;;5.18;3.08;;;;;;;-146.27;85.67;42230.03;5066497;28;20016;-72
2024/01/06 04:59:21;;;;;;;7.30;3.22;;;;;;;-146.27;85.45;42218.09;5067250;28;22226;-72
2024/01/06 05:01:47;;;;;;;4.97;3.13;;;;;;;-146.27;85.79;42218.09;5060446;28;20711;-71
2024/01/06 05:04:12;;;;;;;4.55;3.38;;;;;;;-146.27;86.18;42192.25;5067247;28;20032;-71
2024/01/06 05:06:38;;;;;;;6.28;4.30;;;;;;;-146.27;85.97;42228.03;5067949;28;20016;-72
2024/01/06 05:09:03;;;;;;;4.93;3.38;;;;;;;-146.27;85.74;42222.06;5067822;28;20024;-72
2024/01/06 05:11:29;;;;;;;8.00;3.88;;;;;;;-146.27;85.88;42182.28;5066575;28;20028;-71
2024/01/06 05:13:54;;;;;;;4.53;3.00;;;;;;;-146.27;86.10;42158.44;5070925;28;20120;-71
2024/01/06 05:16:19;;;;;;;5.03;3.58;;;;;;;-146.27;86.22;42166.38;5071745;28;20056;-71
2024/01/06 05:18:45;;;;;;;7.28;3.17;;;;;;;-146.27;86.60;42110.72;5069033;28;20078;-72
2024/01/06 05:21:10;;;;;;;5.53;3.08;;;;;;;-146.27;85.83;42214.13;5066231;28;20082;-71
2024/01/06 05:23:35;;;;;;;10.18;3.20;;;;;;;-146.27;85.70;42253.88;5073535;28;20024;-71
2024/01/06 05:26:01;;;;;;;4.95;2.78;;;;;;;-146.27;85.56;42271.78;5073632;28;20021;-71
2024/01/06 05:28:26;;;;;;;3.63;2.55;;;;;;;-146.27;85.32;42301.63;5073191;28;20031;-72
2024/01/06 05:30:51;;;;;;;3.75;2.75;;;;;;;-146.27;85.42;42333.44;5073297;28;20480;-71
2024/01/06 05:33:17;;;;;;;4.45;2.65;;;;;;;-146.27;85.81;42291.66;5073580;28;20469;-72
2024/01/06 05:35:42;;;;;;;2.95;2.30;;;;;;;-146.27;85.48;42357.28;5070824;28;20044;-71
2024/01/06 05:38:08;;;;;;;3.95;1.98;;;;;;;-146.27;85.56;42359.28;5071825;28;20020;-71
2024/01/06 05:40:33;;;;;;;5.00;2.45;;;;;;;-146.27;85.95;42249.91;5071362;28;20031;-72
2024/01/06 05:42:58;;;;;;;6.13;2.45;;;;;;;-146.27;85.35;42353.31;5066426;28;20649;-72
2024/01/06 05:45:24;;;;;;;5.65;2.42;;;;;;;-146.27;84.99;42405.03;5079733;28;20110;-71
2024/01/06 05:47:49;;;;;;;6.45;2.47;;;;;;;-146.27;84.99;42420.94;5075984;28;20070;-72
2024/01/06 05:50:16;;;;;;;3.80;2.17;;;;;;;-146.27;84.95;42405.03;5067332;28;20063;-72
2024/01/06 05:52:41;;;;;;;5.80;2.47;;;;;;;-146.27;84.91;42494.53;5069998;28;20067;-73
2024/01/06 05:55:07;;;;;;;5.53;2.80;;;;;;;-146.27;84.51;42532.31;5064274;28;20033;-72
2024/01/06 05:57:32;;;;;;;2.40;1.90;;;;;;;-146.27;84.25;42572.09;5069170;28;20024;-72
2024/01/06 05:59:59;;;;;;;2.78;2.05;;;;;;;-146.27;84.23;42568.09;5062426;28;20049;-71
2024/01/06 06:02:24;;;;;;;1.90;1.52;;;;;;;-146.27;83.75;42623.78;5067643;28;20374;-72
2024/01/06 06:04:49;;;;;;;4.10;1.77;;;;;;;-146.27;83.55;42647.66;5072016;28;20027;-72
2024/01/06 06:07:15;;;;;;;4.57;2.33;;;;;;;-146.27;83.85;42691.41;5062049;28;20052;-72
2024/01/06 06:09:40;;;;;;;7.63;2.42;;;;;;;-146.27;83.63;42703.34;5061785;28;20071;-72
2024/01/06 06:12:06;;;;;;;2.95;2.17;;;;;;;-146.27;83.71;42707.31;5062426;28;20043;-73
2024/01/06 06:14:31;;;;;;;4.22;2.78;;;;;;;-146.27;83.84;42679.47;5063956;28;20239;-72
2024/01/06 06:16:57;;;;;;;3.67;2.10;;;;;;;-146.27;83.55;42717.25;5071801;28;20013;-72
2024/01/06 06:19:22;;;;;;;6.65;2.30;;;;;;;-146.27;83.81;42703.34;5072580;28;20035;-72
2024/01/06 06:21:47;;;;;;;7.43;3.15;;;;;;;-146.27;84.01;42735.16;5072142;28;20504;-72
2024/01/06 06:24:13;;;;;;;7.10;2.65;;;;;;;-146.27;84.35;42625.78;5065720;28;20021;-72
2024/01/06 06:26:38;;;;;;;5.07;2.80;;;;;;;-146.27;83.82;42683.47;5064790;28;20032;-72
2024/01/06 06:29:04;;;;;;;4.70;2.38;;;;;;;-146.27;83.70;42739.16;5068515;28;20028;-72
2024/01/06 06:31:29;;;;;;;3.80;2.60;;;;;;;-146.27;83.69;42757.03;5071162;28;20027;-72
2024/01/06 06:33:54;;;;;;;5.32;2.85;;;;;;;-146.27;83.72;42735.16;5070408;28;20025;-72
2024/01/06 06:36:20;;;;;;;5.28;3.38;;;;;;;-146.27;84.21;42695.38;5063783;28;20021;-72
2024/01/06 06:38:45;;;;;;;4.50;2.92;;;;;;;-146.27;84.13;42687.44;5067630;28;20020;-73
2024/01/06 06:41:11;;;;;;;6.95;3.58;;;;;;;-146.27;84.39;42691.41;5068469;28;20488;-72
2024/01/06 06:43:36;;;;;;;5.70;2.78;;;;;;;-146.27;84.10;42717.25;5067806;28;20358;-72
2024/01/06 06:46:02;;;;;;;6.03;3.40;;;;;;;-146.27;84.16;42679.47;5069428;28;20035;-72
2024/01/06 06:48:27;;;;;;;4.32;3.15;;;;;;;-146.27;84.56;42641.69;5069111;28;20028;-72
2024/01/06 06:50:53;;;;;;;9.07;3.50;;;;;;;-146.27;84.43;42667.53;5057661;28;20389;-72
2024/01/06 06:53:18;;;;;;;6.72;3.22;;;;;;;-146.27;84.70;42635.72;5061921;28;20028;-83
2024/01/06 06:55:44;;;;;;;6.97;4.53;;;;;;;-146.27;84.62;42603.91;5054047;28;20028;-73
2024/01/06 06:58:09;;;;;;;11.90;3.50;;;;;;;-146.27;85.21;42504.47;5055553;28;20535;-72
2024/01/06 07:00:35;;;;;;;5.20;3.58;;;;;;;-146.27;84.76;42564.13;5062295;28;20041;-72
2024/01/06 07:03:00;;;;;;;8.85;4.38;;;;;;;-146.27;85.07;42548.22;5069813;28;20028;-74
2024/01/06 07:05:26;;;;;;;4.90;3.95;;;;;;;-146.27;85.18;42500.47;5068835;28;20479;-72
2024/01/06 07:07:51;;;;;;;5.60;4.13;;;;;;;-146.27;85.88;42395.09;5068267;28;20036;-73
2024/01/06 07:10:17;;;;;;;6.93;4.00;;;;;;;-146.27;85.78;42414.97;5074268;28;20036;-74
2024/01/06 07:12:42;;;;;;;5.82;4.20;;;;;;;-146.27;85.77;42373.22;5069394;28;20124;-73
2024/01/06 07:15:11;;;;;;;5.25;4.63;;;;;;;-146.27;85.94;42361.28;5069489;28;20081;-72
2024/01/06 07:17:38;;;;;;;4.95;3.63;;;;;;;-146.27;85.54;42438.84;5070429;28;20039;-73
2024/01/06 07:20:06;;;;;;;6.05;4.32;;;;;;;-146.27;85.59;42383.16;5055890;28;20029;-73
2024/01/06 07:22:34;;;;;;;6.32;4.43;;;;;;;-146.27;85.86;42317.53;5068869;28;20082;-73
2024/01/06 07:25:00;;;;;;;5.47;4.32;;;;;;;-146.27;85.42;42363.25;5067789;28;20021;-73
2024/01/06 07:27:25;;;;;;;10.85;4.05;;;;;;;-146.27;85.45;42393.09;5066214;28;20028;-71
2024/01/06 07:29:51;;;;;;;5.38;3.80;;;;;;;-146.27;85.31;42399.06;5067028;28;20023;-72
2024/01/06 07:32:16;;;;;;;7.18;4.57;;;;;;;-146.27;85.32;42460.72;5070962;28;20103;-72
2024/01/06 07:34:43;;;;;;;5.68;4.00;;;;;;;-146.27;85.35;42381.16;5069665;28;20052;-72
2024/01/06 07:37:08;;;;;;;5.22;3.85;;;;;;;-146.27;85.40;42440.81;5071047;28;20032;-72
2024/01/06 07:39:34;;;;;;;7.25;4.07;;;;;;;-146.27;85.18;42418.94;5063253;28;20098;-72
2024/01/06 07:41:59;;;;;;;5.80;3.88;;;;;;;-146.27;85.17;42436.84;5063497;28;20036;-73
2024/01/06 07:44:25;;;;;;;7.05;4.15;;;;;;;-146.27;85.23;42528.31;5068588;28;20021;-73
2024/01/06 07:46:51;;;;;;;6.88;4.00;;;;;;;-146.27;85.10;42486.56;5068779;28;20028;-74
2024/01/06 07:49:16;;;;;;;7.72;4.05;;;;;;;-146.27;85.42;42470.66;5069581;28;20085;-78
2024/01/06 07:51:42;;;;;;;5.38;3.30;;;;;;;-146.27;85.13;42530.31;5065530;28;20040;-72
2024/01/06 07:54:08;;;;;;;6.97;3.08;;;;;;;-146.27;84.54;42603.91;5065489;28;20430;-73
2024/01/06 07:56:34;;;;;;;5.95;3.40;;;;;;;-146.27;84.73;42613.84;5070787;28;20032;-75
2024/01/06 07:59:00;;;;;;;4.35;2.95;;;;;;;-146.27;84.70;42617.81;5069029;28;20024;-72
2024/01/06 08:01:26;;;;;;;5.65;3.13;;;;;;;-146.27;84.21;42647.66;5062291;28;20044;-72
2024/01/06 08:03:51;;;;;;;7.78;3.17;;;;;;;-146.27;84.50;42691.41;5062195;28;20033;-72
2024/01/06 08:06:17;;;;;;;5.97;2.83;;;;;;;-146.27;84.57;42681.47;5051218;28;20632;-73
2024/01/06 08:08:42;;;;;;;7.45;3.05;;;;;;;-146.27;84.46;42623.78;5056331;28;20543;-72
2024/01/06 08:11:08;;;;;;;4.60;3.20;;;;;;;-146.27;84.46;42681.47;5056770;28;20386;-72
2024/01/06 08:13:33;;;;;;;8.68;3.65;;;;;;;-146.27;84.78;42659.59;5063855;28;20055;-73
2024/01/06 08:15:59;;;;;;;5.32;3.40;;;;;;;-146.27;84.69;42603.91;5050452;28;20083;-72
2024/01/06 08:18:24;;;;;;;7.03;3.47;;;;;;;-146.27;84.73;42651.63;5061279;28;20044;-73
2024/01/06 08:20:49;;;;;;;7.90;3.22;;;;;;;-146.27;84.34;42723.22;5050736;28;20158;-73
2024/01/06 08:23:16;;;;;;;4.97;3.08;;;;;;;-146.27;84.22;42745.09;5062768;28;20119;-73
2024/01/06 08:25:41;;;;;;;6.32;3.60;;;;;;;-146.27;84.26;42715.28;5052961;28;20036;-72
2024/01/06 08:28:06;;;;;;;5.85;3.60;;;;;;;-146.27;84.88;42685.44;5060657;28;20033;-72
2024/01/06 08:30:32;;;;;;;10.45;3.80;;;;;;;-146.27;84.70;42649.66;5057365;28;20041;-73
2024/01/06 08:32:59;;;;;;;11.60;3.60;;;;;;;-146.27;84.91;42615.84;5069608;28;20070;-73
2024/01/06 08:35:24;;;;;;;6.80;3.75;;;;;;;-146.27;84.83;42603.91;5056800;28;20060;-72
2024/01/06 08:37:50;;;;;;;5.47;3.25;;;;;;;-146.27;85.02;42588.00;5052947;28;20404;-72
2024/01/06 08:40:15;;;;;;;7.30;3.60;;;;;;;-146.27;85.62;42506.44;5053783;28;20465;-71
2024/01/06 08:42:41;;;;;;;5.57;3.80;;;;;;;-146.27;85.03;42572.09;5050667;28;20496;-73
2024/01/06 08:45:06;;;;;;;6.63;3.47;;;;;;;-146.27;85.09;42560.16;5058789;28;20044;-72
2024/01/06 08:47:32;;;;;;;9.38;3.70;;;;;;;-146.27;85.37;42552.19;5069553;28;20023;-72
2024/01/06 08:49:57;;;;;;;4.95;3.33;;;;;;;-146.27;85.41;42540.25;5070034;28;20077;-72
2024/01/06 08:52:23;;;;;;;3.63;2.33;;;;;;;-146.27;85.03;42591.97;5062470;28;20074;-72
2024/01/06 08:54:49;;;;;;;5.82;3.10;;;;;;;-146.27;85.03;42647.66;5065949;28;20021;-72
2024/01/06 08:57:15;;;;;;;3.13;2.60;;;;;;;-146.27;84.96;42719.25;5070296;28;20183;-72
2024/01/06 08:59:40;;;;;;;6.72;3.15;;;;;;;-146.27;85.15;42673.50;5070066;28;20127;-72
2024/01/06 09:02:05;;;;;;;4.80;2.65;;;;;;;-146.27;84.84;42717.25;5069568;28;20035;-72
2024/01/06 09:04:31;;;;;;;3.33;2.42;;;;;;;-146.27;84.92;42753.06;5070248;28;20040;-73
2024/01/06 09:06:56;;;;;;;5.30;2.90;;;;;;;-146.27;84.82;42780.91;5068811;28;20032;-72
2024/01/06 09:09:23;;;;;;;5.60;3.03;;;;;;;-146.27;84.64;42780.91;5059519;28;20017;-73
2024/01/06 09:11:50;;;;;;;4.65;3.00;;;;;;;-146.27;84.95;42765.00;5056282;28;20162;-73
2024/01/06 09:14:17;;;;;;;6.82;3.83;;;;;;;-146.27;85.21;42743.13;5066795;28;20028;-72
2024/01/06 09:16:42;;;;;;;6.57;3.20;;;;;;;-146.27;85.11;42790.84;5053345;28;20420;-72
2024/01/06 09:19:08;;;;;;;6.22;3.90;;;;;;;-146.27;84.87;42854.50;5056246;28;20032;-72
2024/01/06 09:21:33;;;;;;;4.32;3.00;;;;;;;-146.27;84.50;42938.03;5061302;28;20025;-71
2024/01/06 09:24:00;;;;;;;3.78;2.30;;;;;;;-146.27;84.58;43009.63;5065526;28;20256;-72
2024/01/06 09:26:25;;;;;;;4.47;2.22;;;;;;;-146.27;84.52;43089.19;5069995;28;20032;-73
2024/01/06 09:28:51;;;;;;;3.72;2.22;;;;;;;-146.27;84.36;43216.50;5068941;28;20032;-73
2024/01/06 09:31:16;;;;;;;4.88;2.53;;;;;;;-146.27;83.99;43298.06;5065876;28;20024;-72
2024/01/06 09:33:42;;;;;;;4.93;2.47;;;;;;;-146.27;83.85;43403.50;5053069;28;20025;-73
2024/01/06 09:36:11;;;;;;;5.15;2.67;;;;;;;-146.27;83.69;43463.16;5049823;28;20021;-73
2024/01/06 09:38:36;;;;;;;6.78;2.92;;;;;;;-146.27;83.88;43475.09;5060972;28;20395;-73
2024/01/06 09:41:02;;;;;;;6.93;2.80;;;;;;;-146.27;83.49;43600.44;5066456;28;20035;-73
2024/01/06 09:43:30;;;;;;;5.47;2.10;;;;;;;-146.27;82.94;43689.94;5052936;28;20025;-72
2024/01/06 09:46:11;;;;;;;8.18;2.30;;;;;;;-146.27;82.40;43729.72;5054372;28;20115;-72
2024/01/06 09:48:43;;;;;;;5.50;2.00;;;;;;;-146.27;81.98;43898.84;5069399;28;20033;-74
2024/01/06 09:51:11;;;;;;;2.85;1.98;;;;;;;-146.27;82.49;43952.56;5054982;28;20381;-72
2024/01/06 09:53:46;;;;;;;8.68;1.90;;;;;;;-146.27;82.51;44024.16;5065891;28;20071;-73
2024/01/06 09:56:13;;;;;;;4.53;2.17;;;;;;;-146.27;82.63;44006.25;5052281;28;20078;-72
2024/01/06 09:58:39;;;;;;;2.47;1.98;;;;;;;-146.27;82.80;43976.41;5051487;28;20048;-72
2024/01/06 10:01:06;;;;;;;3.90;2.55;;;;;;;-146.27;82.28;44075.91;5064922;28;20447;-73
2024/01/06 10:03:31;;;;;;;4.18;2.28;;;;;;;-146.27;82.25;44032.13;5062069;28;20089;-73
2024/01/06 10:06:00;;;;;;;3.92;1.88;;;;;;;-146.27;82.07;44091.81;5070820;28;20480;-72
2024/01/06 10:08:26;;;;;;;3.58;2.10;;;;;;;-146.27;82.14;44093.81;5072628;28;20099;-72
2024/01/06 10:10:51;;;;;;;10.00;2.58;;;;;;;-146.27;82.42;44042.06;5073271;28;20021;-72
2024/01/06 10:13:18;;;;;;;3.83;2.22;;;;;;;-146.27;82.08;44040.09;5071214;28;20032;-72
2024/01/06 10:15:43;;;;;;;6.30;2.22;;;;;;;-146.27;82.28;44048.03;5069801;28;20885;-72
2024/01/06 10:18:09;;;;;;;4.38;2.50;;;;;;;-146.27;82.27;44099.78;5071895;28;20134;-72
2024/01/06 10:20:34;;;;;;;4.55;2.38;;;;;;;-146.27;82.42;44161.44;5071436;28;20027;-72
2024/01/06 10:23:05;;;;;;;5.45;2.15;;;;;;;-146.27;82.25;44217.16;5056527;28;20272;-72
2024/01/06 10:25:30;;;;;;;5.78;2.35;;;;;;;-146.27;81.86;44258.94;5066031;28;20377;-73
2024/01/06 10:27:56;;;;;;;3.63;2.17;;;;;;;-146.27;81.59;44266.91;5068952;28;20017;-72
2024/01/06 10:30:21;;;;;;;3.05;1.80;;;;;;;-146.27;81.60;44219.16;5071723;28;20498;-73
2024/01/06 10:32:46;;;;;;;2.72;2.03;;;;;;;-146.27;81.17;44290.78;5064382;28;20045;-73
2024/01/06 10:35:12;;;;;;;5.53;2.03;;;;;;;-146.27;80.77;44362.41;5065844;28;20032;-71
2024/01/06 10:37:42;;;;;;;4.35;1.85;;;;;;;-146.27;81.24;44378.31;5061853;28;20074;-72
2024/01/06 10:40:08;;;;;;;7.50;2.35;;;;;;;-146.27;81.57;44314.66;5060846;28;20114;-73
2024/01/06 10:42:34;;;;;;;5.90;2.30;;;;;;;-146.27;81.72;44258.94;5064823;28;20029;-73
2024/01/06 10:45:03;;;;;;;7.00;2.70;;;;;;;-146.27;81.68;44296.75;5052047;28;20028;-72
2024/01/06 10:47:31;;;;;;;3.88;2.60;;;;;;;-146.27;82.30;44268.88;5053161;28;20036;-73
2024/01/06 10:49:59;;;;;;;4.97;2.90;;;;;;;-146.27;82.03;44231.09;5068957;28;20031;-72
2024/01/06 10:52:27;;;;;;;4.60;2.42;;;;;;;-146.27;81.54;44272.88;5071030;28;20056;-73
2024/01/06 10:54:54;;;;;;;7.03;2.70;;;;;;;-146.27;82.10;44233.06;5069231;28;20647;-73
2024/01/06 10:57:20;;;;;;;5.80;2.78;;;;;;;-146.27;81.75;44252.97;5054450;28;20053;-72
2024/01/06 10:59:49;;;;;;;8.07;3.13;;;;;;;-146.27;81.82;44235.06;5071827;28;20040;-72
2024/01/06 11:02:16;;;;;;;4.32;2.65;;;;;;;-146.27;82.25;44165.44;5072463;28;20024;-72
2024/01/06 11:04:44;;;;;;;3.95;2.75;;;;;;;-146.27;82.98;44177.38;5072007;28;20031;-72
2024/01/06 11:07:11;;;;;;;3.75;2.90;;;;;;;-146.27;82.36;44223.13;5058691;28;20120;-72